Time;durP1;ratioP1;P1;durP2;ratioP2;P2;SDS_P1;SDS_P2;PMS_P1;PMS_P2;Temp;Humidity;BMP_temperature;BMP_pressure;BME280_temperature;BME280_humidity;BME280_pressure;Samples;Min_cycle;Max_cycle;Signal;HPM_P1;HPM_P2
2021/08/02 00:00:07;;;;;;;15.82;11.52;;;;;;;22.26;54.22;93270.47;5068332;28;20066;-55
2021/08/02 00:02:50;;;;;;;30.77;13.05;;;;;;;22.32;54.68;93261.63;5070144;28;20028;-56
2021/08/02 00:05:21;;;;;;;20.80;10.98;;;;;;;22.21;55.00;93268.13;5071162;28;20038;-53
2021/08/02 00:07:54;;;;;;;15.80;11.52;;;;;;;22.18;54.91;93260.94;5070793;28;20021;-55
2021/08/02 00:10:20;;;;;;;18.67;12.43;;;;;;;22.04;55.32;93263.06;5068897;28;20081;-54
2021/08/02 00:13:13;;;;;;;16.45;11.68;;;;;;;21.94;56.16;93260.47;5069562;28;20660;-54
2021/08/02 00:15:39;;;;;;;16.70;11.20;;;;;;;21.96;55.88;93257.06;5068727;28;20032;-54
2021/08/02 00:18:06;;;;;;;15.45;11.48;;;;;;;21.69;56.38;93240.94;5070616;28;20043;-56
2021/08/02 00:20:34;;;;;;;16.33;11.80;;;;;;;21.93;56.08;93270.28;5070467;28;20032;-57
2021/08/02 00:23:05;;;;;;;14.65;11.65;;;;;;;21.82;56.33;93254.25;5070697;28;20060;-56
2021/08/02 00:25:30;;;;;;;18.15;12.05;;;;;;;21.88;56.28;93269.34;5070322;28;20032;-56
2021/08/02 00:27:56;;;;;;;16.15;11.95;;;;;;;21.85;56.57;93269.91;5071103;28;20489;-55
2021/08/02 00:30:24;;;;;;;16.67;12.15;;;;;;;21.73;57.02;93263.63;5069915;28;20031;-55
2021/08/02 00:32:50;;;;;;;19.15;12.27;;;;;;;21.67;57.24;93272.50;5071105;28;20468;-54
2021/08/02 00:35:16;;;;;;;20.67;12.95;;;;;;;21.66;56.88;93259.78;5070747;28;20024;-55
2021/08/02 00:38:04;;;;;;;14.23;12.57;;;;;;;21.60;57.15;93264.38;5071033;28;20036;-55
2021/08/02 00:40:48;;;;;;;15.60;12.10;;;;;;;21.53;57.46;93262.59;5070053;28;20422;-56
2021/08/02 00:43:52;;;;;;;20.52;11.98;;;;;;;21.56;57.02;93250.13;5070676;28;20113;-55
2021/08/02 00:46:18;;;;;;;20.25;12.32;;;;;;;21.47;57.46;93253.88;5070591;28;20058;-54
2021/08/02 00:48:53;;;;;;;17.10;12.38;;;;;;;21.36;58.07;93251.91;5069333;28;20111;-55
2021/08/02 00:51:19;;;;;;;16.48;12.93;;;;;;;21.35;57.65;93239.22;5068972;28;20478;-55
2021/08/02 00:53:47;;;;;;;17.90;12.27;;;;;;;21.31;57.88;93236.94;5070780;28;20031;-52
2021/08/02 00:56:14;;;;;;;17.23;13.57;;;;;;;21.35;57.87;93250.47;5070714;28;20048;-54
2021/08/02 00:58:40;;;;;;;15.55;12.23;;;;;;;21.27;57.84;93252.88;5070403;28;20498;-54
2021/08/02 01:01:07;;;;;;;14.02;12.10;;;;;;;21.05;58.11;93227.88;5070614;28;20025;-51
2021/08/02 01:03:32;;;;;;;14.40;12.10;;;;;;;21.04;58.48;93234.88;5069206;28;20139;-53
2021/08/02 01:05:58;;;;;;;19.30;13.05;;;;;;;21.01;58.63;93243.75;5070283;28;20153;-53
2021/08/02 01:08:26;;;;;;;16.30;12.90;;;;;;;20.86;58.81;93244.38;5070634;28;20029;-55
2021/08/02 01:10:55;;;;;;;41.40;15.63;;;;;;;20.79;59.07;93234.91;5070549;28;20032;-53
2021/08/02 01:13:22;;;;;;;26.10;14.52;;;;;;;20.65;59.78;93230.63;5070139;28;20498;-54
2021/08/02 01:15:51;;;;;;;16.75;12.07;;;;;;;20.62;60.01;93223.47;5070385;28;20036;-54
2021/08/02 01:18:21;;;;;;;25.37;13.80;;;;;;;20.57;59.80;93225.31;5070187;28;20047;-56
2021/08/02 01:20:49;;;;;;;21.17;13.65;;;;;;;20.64;59.82;93221.47;5070290;28;20467;-53
2021/08/02 01:23:15;;;;;;;15.27;12.17;;;;;;;20.58;60.08;93218.34;5070227;28;20028;-50
2021/08/02 01:25:41;;;;;;;21.85;13.45;;;;;;;20.64;59.63;93215.16;5070058;28;20442;-53
2021/08/02 01:28:15;;;;;;;15.80;12.57;;;;;;;20.62;59.74;93223.47;5070312;28;20032;-52
2021/08/02 01:30:52;;;;;;;18.83;14.02;;;;;;;20.59;60.19;93208.59;5070073;28;20020;-52
2021/08/02 01:33:28;;;;;;;16.15;12.85;;;;;;;20.57;59.86;93210.56;5070367;28;20107;-54
2021/08/02 01:35:57;;;;;;;18.67;13.27;;;;;;;20.58;59.50;93206.41;5071379;28;20490;-53
2021/08/02 01:38:27;;;;;;;17.23;12.93;;;;;;;20.43;59.82;93204.94;5054406;28;20080;-52
2021/08/02 01:40:53;;;;;;;15.40;13.07;;;;;;;20.34;59.97;93197.41;5053991;28;20525;-50
2021/08/02 01:43:18;;;;;;;18.42;13.93;;;;;;;20.32;60.27;93192.44;5054031;28;20084;-50
2021/08/02 01:46:09;;;;;;;16.60;13.95;;;;;;;20.14;60.47;93173.88;5086416;28;20425;-52
2021/08/02 01:48:52;;;;;;;17.50;13.27;;;;;;;20.25;60.79;93201.88;5054257;28;20037;-49
2021/08/02 01:51:30;;;;;;;20.83;13.90;;;;;;;20.18;60.96;93196.53;5056971;28;20079;-52
2021/08/02 01:54:36;;;;;;;22.07;15.00;;;;;;;20.08;61.52;93196.69;5074251;28;20055;-51
2021/08/02 01:57:08;;;;;;;26.77;14.05;;;;;;;19.99;61.53;93191.28;5073269;28;20509;-52
2021/08/02 01:59:51;;;;;;;14.77;12.50;;;;;;;19.93;60.96;93197.25;5072923;28;20059;-55
2021/08/02 02:02:18;;;;;;;16.88;14.10;;;;;;;19.86;61.48;93192.66;5073831;28;20040;-56
2021/08/02 02:04:56;;;;;;;19.70;14.02;;;;;;;19.93;61.15;93186.06;5073161;28;20425;-55
2021/08/02 02:07:22;;;;;;;15.13;13.52;;;;;;;19.98;61.54;93192.63;5072997;28;20140;-54
2021/08/02 02:09:48;;;;;;;17.38;13.68;;;;;;;19.97;60.68;93185.53;5069782;28;20040;-53
2021/08/02 02:12:15;;;;;;;18.17;15.50;;;;;;;19.91;61.04;93185.22;5072282;28;20035;-49
2021/08/02 02:14:41;;;;;;;17.73;15.48;;;;;;;19.96;61.31;93175.69;5072425;28;20055;-55
2021/08/02 02:17:10;;;;;;;18.88;13.63;;;;;;;19.91;61.12;93183.16;5073705;28;20039;-55
2021/08/02 02:19:36;;;;;;;21.60;15.60;;;;;;;19.79;61.68;93187.34;5073260;28;20070;-55
2021/08/02 02:22:02;;;;;;;22.35;17.55;;;;;;;19.80;62.02;93186.72;5073481;28;20037;-56
2021/08/02 02:24:28;;;;;;;20.05;16.10;;;;;;;19.77;61.58;93181.63;5073533;28;20028;-56
2021/08/02 02:26:57;;;;;;;20.42;16.75;;;;;;;19.64;61.34;93166.94;5073413;28;20078;-55
2021/08/02 02:29:23;;;;;;;20.55;17.08;;;;;;;19.51;61.76;93169.69;5073172;28;20032;-54
2021/08/02 02:31:49;;;;;;;23.60;18.08;;;;;;;19.52;61.69;93183.06;5071889;28;20028;-56
2021/08/02 02:34:16;;;;;;;23.77;18.48;;;;;;;19.32;61.80;93165.09;5073048;28;20039;-52
2021/08/02 02:36:42;;;;;;;20.23;17.17;;;;;;;19.42;61.75;93182.50;5072975;28;20032;-53
2021/08/02 02:39:08;;;;;;;21.83;18.05;;;;;;;19.30;61.78;93173.38;5071955;28;20033;-49
2021/08/02 02:41:33;;;;;;;40.13;23.70;;;;;;;19.27;62.14;93188.59;5072127;28;20036;-54
2021/08/02 02:44:00;;;;;;;35.15;26.20;;;;;;;19.32;62.34;93195.88;5072610;28;20569;-54
2021/08/02 02:46:26;;;;;;;33.85;24.25;;;;;;;19.18;62.72;93197.88;5071977;28;20036;-52
2021/08/02 02:48:52;;;;;;;42.00;31.15;;;;;;;18.99;62.79;93177.84;5070809;28;20506;-52
2021/08/02 02:51:18;;;;;;;53.58;28.38;;;;;;;19.07;63.25;93207.00;5071491;28;20017;-53
2021/08/02 02:53:45;;;;;;;56.92;29.42;;;;;;;19.03;63.55;93203.97;5071550;28;20025;-52
2021/08/02 02:56:12;;;;;;;43.80;28.85;;;;;;;18.92;63.68;93204.72;5071597;28;20024;-49
2021/08/02 02:58:39;;;;;;;48.28;31.55;;;;;;;18.99;63.72;93195.34;5071770;28;20169;-49
2021/08/02 03:01:06;;;;;;;42.80;30.73;;;;;;;18.99;63.58;93198.16;5071190;28;20273;-51
2021/08/02 03:03:37;;;;;;;57.38;35.67;;;;;;;18.94;63.72;93190.84;5072730;28;20046;-49
2021/08/02 03:06:04;;;;;;;77.47;36.90;;;;;;;19.00;63.60;93201.66;5071201;28;20028;-48
2021/08/02 03:08:31;;;;;;;88.45;39.97;;;;;;;18.93;63.73;93200.56;5072674;28;20024;-47
2021/08/02 03:10:56;;;;;;;60.50;31.85;;;;;;;18.90;63.74;93199.00;5071463;28;20023;-51
2021/08/02 03:13:22;;;;;;;42.13;27.35;;;;;;;18.80;63.88;93201.94;5071053;28;20444;-46
2021/08/02 03:15:48;;;;;;;64.97;36.47;;;;;;;18.81;64.12;93191.47;5072248;28;20024;-50
2021/08/02 03:18:13;;;;;;;72.22;37.97;;;;;;;18.84;64.41;93190.25;5071014;28;20048;-49
2021/08/02 03:20:40;;;;;;;55.95;31.52;;;;;;;18.79;64.50;93192.09;5072375;28;20550;-49
2021/08/02 03:23:28;;;;;;;90.40;36.05;;;;;;;18.76;64.49;93189.75;5070995;28;20023;-48
2021/08/02 03:26:09;;;;;;;40.78;25.02;;;;;;;18.84;63.15;93190.25;5072561;28;20058;-47
2021/08/02 03:28:48;;;;;;;45.60;23.42;;;;;;;18.92;62.97;93199.84;5070720;28;20028;-47
2021/08/02 03:31:17;;;;;;;40.38;25.23;;;;;;;18.87;63.07;93191.81;5071892;28;20024;-47
2021/08/02 03:33:43;;;;;;;47.67;29.13;;;;;;;18.91;63.24;93203.25;5070110;28;20105;-47
2021/08/02 03:36:12;;;;;;;41.50;26.60;;;;;;;18.87;63.10;93200.94;5070758;28;20032;-47
2021/08/02 03:38:38;;;;;;;59.38;30.58;;;;;;;18.83;63.77;93211.91;5070707;28;20085;-48
2021/08/02 03:41:07;;;;;;;33.88;24.30;;;;;;;18.86;63.24;93209.97;5070876;28;20028;-46
2021/08/02 03:43:36;;;;;;;63.85;31.27;;;;;;;18.76;63.71;93200.94;5071588;28;20048;-47
2021/08/02 03:46:04;;;;;;;44.28;30.33;;;;;;;18.82;63.83;93204.09;5070300;28;20052;-47
2021/08/02 03:48:30;;;;;;;46.67;26.95;;;;;;;18.88;63.51;93208.00;5071679;28;20413;-48
2021/08/02 03:50:56;;;;;;;50.95;27.92;;;;;;;18.81;63.51;93202.66;5070372;28;20031;-50
2021/08/02 03:53:21;;;;;;;53.35;34.35;;;;;;;18.81;63.62;93199.84;5071584;28;20070;-51
2021/08/02 03:55:47;;;;;;;65.93;32.88;;;;;;;18.83;63.44;93197.91;5071863;28;20024;-50
2021/08/02 03:58:13;;;;;;;47.65;26.65;;;;;;;18.82;63.59;93201.31;5070567;28;20016;-52
2021/08/02 04:00:38;;;;;;;62.55;35.08;;;;;;;18.77;64.09;93210.81;5069150;28;20052;-50
2021/08/02 04:03:05;;;;;;;57.58;35.72;;;;;;;18.77;64.25;93208.00;5071742;28;20056;-49
2021/08/02 04:05:30;;;;;;;80.68;35.25;;;;;;;18.73;64.23;93205.69;5071586;28;20043;-53
2021/08/02 04:07:58;;;;;;;53.78;30.83;;;;;;;18.80;64.21;93201.94;5071353;28;20092;-49
2021/08/02 04:10:24;;;;;;;71.80;36.15;;;;;;;18.75;64.96;93202.31;5071170;28;20508;-51
2021/08/02 04:12:50;;;;;;;73.10;38.45;;;;;;;18.78;64.81;93201.06;5071224;28;20099;-50
2021/08/02 04:15:15;;;;;;;78.03;33.13;;;;;;;18.85;65.05;93208.50;5071080;28;20035;-49
2021/08/02 04:17:41;;;;;;;84.82;43.17;;;;;;;18.84;64.94;93210.56;5071233;28;20031;-50
2021/08/02 04:20:07;;;;;;;101.10;45.92;;;;;;;18.91;64.91;93208.84;5070714;28;20025;-55
2021/08/02 04:22:33;;;;;;;93.72;43.78;;;;;;;18.99;65.08;93203.75;5070524;28;20029;-54
2021/08/02 04:24:58;;;;;;;84.40;42.05;;;;;;;19.04;64.73;93201.88;5069246;28;20024;-55
2021/08/02 04:27:24;;;;;;;109.97;44.88;;;;;;;18.96;64.32;93207.03;5070335;28;20497;-54
2021/08/02 04:29:49;;;;;;;116.80;50.88;;;;;;;18.95;64.61;93205.56;5068078;28;20012;-54
2021/08/02 04:32:15;;;;;;;98.53;46.53;;;;;;;19.03;64.85;93203.25;5070685;28;20453;-55
2021/08/02 04:34:40;;;;;;;132.32;61.95;;;;;;;19.06;65.01;93208.34;5070620;28;20020;-54
2021/08/02 04:37:06;;;;;;;125.45;52.08;;;;;;;19.03;64.97;93194.84;5070441;28;20054;-54
2021/08/02 04:39:31;;;;;;;114.05;55.05;;;;;;;19.18;65.11;93205.53;5070121;28;20060;-55
2021/08/02 04:41:57;;;;;;;119.75;53.50;;;;;;;19.32;64.60;93212.66;5070526;28;20070;-54
2021/08/02 04:44:22;;;;;;;116.00;51.70;;;;;;;19.18;64.45;93186.69;5069844;28;20055;-54
2021/08/02 04:46:48;;;;;;;158.65;57.63;;;;;;;19.40;64.37;93204.06;5070127;28;20017;-54
2021/08/02 04:49:13;;;;;;;161.95;60.15;;;;;;;19.46;64.79;93204.41;5070112;28;20024;-52
2021/08/02 04:51:39;;;;;;;96.28;51.20;;;;;;;19.56;65.03;93213.38;5069727;28;20032;-53
2021/08/02 04:54:05;;;;;;;164.90;64.65;;;;;;;19.58;65.52;93207.88;5070327;28;20028;-54
2021/08/02 04:56:30;;;;;;;159.95;57.22;;;;;;;19.66;64.98;93220.25;5070277;28;20047;-55
2021/08/02 04:58:56;;;;;;;112.07;64.00;;;;;;;19.72;64.81;93217.09;5070003;28;20013;-55
2021/08/02 05:01:21;;;;;;;138.77;63.17;;;;;;;19.77;65.71;93216.00;5069815;28;20013;-55
2021/08/02 05:03:47;;;;;;;153.10;70.13;;;;;;;19.81;65.18;93213.41;5069880;28;20032;-55
2021/08/02 05:06:14;;;;;;;176.30;70.55;;;;;;;19.84;65.79;93209.34;5069895;28;20029;-54
2021/08/02 05:08:39;;;;;;;178.65;73.00;;;;;;;19.94;65.50;93204.34;5070151;28;20033;-54
2021/08/02 05:11:05;;;;;;;157.95;62.70;;;;;;;20.00;65.67;93207.47;5069733;28;20390;-55
2021/08/02 05:13:31;;;;;;;209.07;82.07;;;;;;;20.02;65.50;93207.56;5069761;28;20438;-54
2021/08/02 05:15:56;;;;;;;225.63;81.55;;;;;;;20.11;66.28;93211.56;5070122;28;20024;-55
2021/08/02 05:18:21;;;;;;;255.80;98.80;;;;;;;20.24;66.25;93203.22;5069742;28;20024;-54
2021/08/02 05:20:47;;;;;;;286.05;106.07;;;;;;;20.29;66.59;93206.97;5069868;28;20028;-54
2021/08/02 05:23:13;;;;;;;291.40;116.32;;;;;;;20.31;65.80;93202.19;5069585;28;20576;-55
2021/08/02 05:25:38;;;;;;;264.00;101.18;;;;;;;20.49;66.78;93208.03;5069865;28;20032;-54
2021/08/02 05:28:04;;;;;;;255.18;103.47;;;;;;;20.51;65.80;93191.31;5068921;28;20044;-53
2021/08/02 05:30:30;;;;;;;323.33;124.95;;;;;;;20.67;65.84;93205.47;5067251;28;20020;-54
2021/08/02 05:32:55;;;;;;;326.33;131.98;;;;;;;20.77;65.63;93203.94;5069934;28;20492;-55
2021/08/02 05:35:21;;;;;;;242.25;98.68;;;;;;;20.92;64.99;93208.94;5069922;28;20111;-55
2021/08/02 05:37:46;;;;;;;157.88;76.55;;;;;;;20.89;64.55;93203.84;5069627;28;20481;-56
2021/08/02 05:40:12;;;;;;;198.27;82.93;;;;;;;21.18;63.32;93214.50;5069728;28;20028;-56
2021/08/02 05:42:38;;;;;;;209.30;91.57;;;;;;;21.23;63.34;93218.94;5069938;28;20017;-55
2021/08/02 05:45:06;;;;;;;139.15;67.15;;;;;;;21.41;62.82;93222.69;5069463;28;20533;-55
2021/08/02 05:47:32;;;;;;;131.05;66.85;;;;;;;21.57;62.55;93223.50;5069873;28;20505;-54
2021/08/02 05:49:57;;;;;;;120.10;70.18;;;;;;;21.63;63.23;93229.41;5070303;28;20027;-56
2021/08/02 05:52:23;;;;;;;126.72;71.57;;;;;;;21.71;63.27;93224.19;5069452;28;20020;-56
2021/08/02 05:54:48;;;;;;;153.10;79.63;;;;;;;21.88;63.11;93218.75;5069927;28;20016;-56
2021/08/02 06:09:51;;;;;;;19.25;11.13;;;;;;;23.52;59.11;93224.16;5128293;27;20641;-57
2021/08/02 06:12:16;;;;;;;16.92;11.70;;;;;;;23.57;59.15;93234.25;5128674;27;20035;-57
2021/08/02 06:14:42;;;;;;;18.35;12.23;;;;;;;23.50;59.18;93224.09;5128673;27;20046;-57
2021/08/02 06:17:07;;;;;;;16.85;12.43;;;;;;;23.49;60.00;93219.09;5128112;27;20023;-57
2021/08/02 06:19:33;;;;;;;22.90;11.30;;;;;;;23.57;58.99;93230.72;5128352;27;20051;-58
2021/08/02 06:21:58;;;;;;;28.92;12.75;;;;;;;23.67;58.28;93217.75;5128150;27;20020;-57
2021/08/02 06:24:24;;;;;;;25.23;12.60;;;;;;;23.79;57.85;93211.91;5128494;27;20024;-57
2021/08/02 06:26:49;;;;;;;16.77;11.98;;;;;;;23.87;58.12;93212.25;5128097;27;20027;-57
2021/08/02 06:29:15;;;;;;;45.83;14.18;;;;;;;23.98;57.18;93228.94;5128093;27;20023;-57
2021/08/02 06:31:40;;;;;;;19.10;11.82;;;;;;;24.10;55.63;93218.16;5128378;27;20034;-57
2021/08/02 06:34:06;;;;;;;22.58;12.07;;;;;;;24.24;55.50;93220.09;5127609;27;20389;-57
2021/08/02 06:36:31;;;;;;;14.88;10.20;;;;;;;24.46;54.14;93223.81;5128312;27;20372;-58
2021/08/02 06:38:57;;;;;;;23.67;10.85;;;;;;;24.65;54.55;93217.47;5128038;27;20019;-58
2021/08/02 06:41:22;;;;;;;21.05;10.85;;;;;;;24.75;54.17;93215.78;5128092;27;20019;-58
2021/08/02 06:43:48;;;;;;;26.48;11.07;;;;;;;25.03;54.58;93218.97;5122156;27;20027;-58
2021/08/02 06:46:13;;;;;;;14.18;10.40;;;;;;;25.15;53.77;93218.66;5111082;27;20595;-57
2021/08/02 06:48:40;;;;;;;17.80;10.20;;;;;;;25.29;55.08;93213.53;5115599;28;20015;-53
2021/08/02 06:51:07;;;;;;;14.63;10.50;;;;;;;25.41;54.42;93219.63;5116401;28;20055;-58
2021/08/02 06:53:32;;;;;;;35.38;11.18;;;;;;;25.56;53.34;93213.84;5112588;28;20030;-56
2021/08/02 06:55:58;;;;;;;111.75;15.68;;;;;;;25.71;50.76;93220.00;5124983;27;20023;-57
2021/08/02 06:58:23;;;;;;;22.90;10.73;;;;;;;25.80;51.34;93211.13;5125192;27;20026;-58
2021/08/02 07:00:48;;;;;;;23.42;10.10;;;;;;;25.94;50.14;93210.88;5125012;27;20102;-58
2021/08/02 07:03:14;;;;;;;18.45;9.38;;;;;;;26.10;49.74;93209.31;5125224;27;20035;-58
2021/08/02 07:05:41;;;;;;;31.85;10.02;;;;;;;26.29;47.82;93205.69;5125004;27;20023;-56
2021/08/02 07:08:06;;;;;;;27.02;8.80;;;;;;;26.53;47.37;93208.56;5106258;27;20416;-56
2021/08/02 07:10:32;;;;;;;17.77;8.98;;;;;;;26.68;46.71;93204.75;5090628;28;20039;-56
2021/08/02 07:12:57;;;;;;;16.67;8.30;;;;;;;26.78;46.51;93205.13;5091089;28;20027;-56
2021/08/02 07:15:23;;;;;;;15.88;8.40;;;;;;;26.96;44.69;93194.31;5090995;28;20024;-55
2021/08/02 07:17:48;;;;;;;14.40;9.35;;;;;;;27.20;43.63;93194.28;5090378;28;20550;-56
2021/08/02 07:20:14;;;;;;;16.85;7.90;;;;;;;27.35;45.86;93189.75;5090861;28;20118;-56
2021/08/02 07:22:39;;;;;;;14.35;7.70;;;;;;;27.73;41.70;93193.63;5090974;28;20020;-56
2021/08/02 07:25:05;;;;;;;13.98;6.97;;;;;;;28.07;37.85;93188.16;5090475;28;20111;-58
2021/08/02 07:27:31;;;;;;;15.02;6.90;;;;;;;28.34;35.08;93188.13;5089202;28;20043;-57
2021/08/02 07:29:56;;;;;;;25.60;7.20;;;;;;;28.64;35.02;93187.41;5088939;28;20028;-57
2021/08/02 07:32:21;;;;;;;16.98;6.85;;;;;;;28.80;34.32;93197.03;5090350;28;20023;-57
2021/08/02 07:34:48;;;;;;;12.35;6.35;;;;;;;28.98;34.97;93191.72;5090791;28;20568;-57
2021/08/02 07:37:13;;;;;;;15.65;6.43;;;;;;;29.24;37.39;93195.13;5090657;28;20032;-55
2021/08/02 07:39:39;;;;;;;16.13;6.78;;;;;;;29.68;34.56;93203.09;5090510;28;20452;-55
2021/08/02 07:42:05;;;;;;;18.75;5.60;;;;;;;30.21;32.33;93193.41;5089913;28;20409;-55
2021/08/02 07:44:31;;;;;;;18.15;5.47;;;;;;;30.58;29.79;93184.09;5101707;28;20089;-56
2021/08/02 07:46:57;;;;;;;13.95;4.85;;;;;;;31.15;26.72;93203.44;5110334;28;20428;-57
2021/08/02 07:49:22;;;;;;;12.25;5.43;;;;;;;31.73;28.18;93205.63;5110536;28;20016;-57
2021/08/02 07:51:48;;;;;;;22.73;6.95;;;;;;;32.32;28.50;93198.38;5110678;28;20034;-56
2021/08/02 07:54:13;;;;;;;13.88;5.28;;;;;;;32.99;25.86;93199.63;5110152;28;20035;-57
2021/08/02 07:56:39;;;;;;;15.07;5.60;;;;;;;33.39;23.04;93194.88;5110202;28;20123;-57
2021/08/02 07:59:06;;;;;;;14.98;4.03;;;;;;;33.62;23.91;93198.56;5110049;28;20024;-57
2021/08/02 08:01:31;;;;;;;19.60;5.10;;;;;;;34.09;22.63;93196.59;5110076;28;20043;-57
2021/08/02 08:03:58;;;;;;;14.40;5.63;;;;;;;34.19;21.26;93193.75;5095864;28;20020;-57
2021/08/02 08:06:23;;;;;;;18.58;4.75;;;;;;;34.08;22.19;93187.28;5089317;28;20050;-53
2021/08/02 08:08:49;;;;;;;23.83;4.93;;;;;;;34.26;21.14;93204.50;5089378;28;20504;-57
2021/08/02 08:11:14;;;;;;;24.98;5.28;;;;;;;34.60;20.83;93197.38;5087886;28;20114;-56
2021/08/02 08:13:44;;;;;;;13.52;4.45;;;;;;;35.02;20.42;93198.09;5090021;28;20107;-54
2021/08/02 08:16:09;;;;;;;14.25;4.32;;;;;;;35.48;21.31;93202.31;5089539;28;20028;-55
2021/08/02 08:18:35;;;;;;;19.90;5.28;;;;;;;35.71;19.62;93200.81;5089255;28;20020;-55
2021/08/02 08:21:01;;;;;;;16.95;4.93;;;;;;;36.11;20.12;93200.63;5088429;28;20035;-55
2021/08/02 08:23:30;;;;;;;14.65;5.10;;;;;;;36.24;18.82;93195.50;5089209;28;20028;-56
2021/08/02 08:25:57;;;;;;;15.18;5.00;;;;;;;36.11;19.44;93197.75;5089220;28;20076;-54
2021/08/02 08:28:22;;;;;;;19.55;5.10;;;;;;;36.33;19.15;93196.91;5089611;28;20020;-55
2021/08/02 08:30:47;;;;;;;20.10;4.18;;;;;;;36.49;18.85;93197.53;5089387;28;20497;-55
2021/08/02 08:33:13;;;;;;;14.15;4.82;;;;;;;36.62;19.33;93203.91;5089397;28;20501;-55
2021/08/02 08:35:38;;;;;;;16.20;4.80;;;;;;;36.97;18.61;93195.75;5089376;28;20373;-55
2021/08/02 08:38:05;;;;;;;12.95;4.40;;;;;;;37.51;18.47;93180.78;5089201;28;20193;-55
2021/08/02 08:40:32;;;;;;;11.23;3.90;;;;;;;38.35;16.78;93192.72;5089511;28;20059;-53
2021/08/02 08:42:57;;;;;;;19.30;4.78;;;;;;;38.57;16.38;93193.09;5091527;28;20024;-55
2021/08/02 08:45:24;;;;;;;17.00;4.35;;;;;;;38.95;15.74;93194.69;5087938;28;20038;-55
2021/08/02 08:47:51;;;;;;;16.25;4.85;;;;;;;39.08;15.72;93181.47;5088743;28;20065;-56
2021/08/02 08:50:18;;;;;;;19.00;4.57;;;;;;;38.96;16.82;93190.34;5089071;28;20028;-55
2021/08/02 08:52:44;;;;;;;18.30;5.55;;;;;;;39.05;16.19;93182.25;5089075;28;20020;-55
2021/08/02 08:55:13;;;;;;;23.10;5.63;;;;;;;39.98;15.86;93179.06;5087534;28;20032;-55
2021/08/02 08:57:39;;;;;;;15.77;4.55;;;;;;;40.06;15.42;93178.91;5091688;28;20024;-55
2021/08/02 09:00:07;;;;;;;19.38;4.78;;;;;;;40.56;15.67;93187.94;5096508;28;20032;-56
2021/08/02 09:02:33;;;;;;;10.50;4.13;;;;;;;40.19;15.30;93188.03;5097189;28;20027;-56
2021/08/02 09:05:00;;;;;;;12.93;4.47;;;;;;;39.74;15.19;93178.84;5098560;28;20026;-56
2021/08/02 09:07:40;;;;;;;17.63;5.10;;;;;;;40.62;15.71;93182.72;5092070;28;20020;-55
2021/08/02 09:10:08;;;;;;;15.55;4.60;;;;;;;41.25;15.13;93184.81;5086512;28;20040;-57
2021/08/02 09:12:34;;;;;;;14.50;4.68;;;;;;;41.21;14.94;93187.81;5088506;28;20027;-56
2021/08/02 09:15:03;;;;;;;14.95;5.10;;;;;;;41.99;15.04;93179.19;5088847;28;20028;-56
2021/08/02 09:17:33;;;;;;;16.48;5.15;;;;;;;42.70;13.65;93169.06;5088303;28;20052;-56
2021/08/02 09:20:06;;;;;;;16.65;4.38;;;;;;;43.09;13.49;93164.91;5088422;28;20027;-56
2021/08/02 09:22:36;;;;;;;22.65;5.25;;;;;;;43.55;12.58;93169.88;5088551;28;20054;-56
2021/08/02 09:25:15;;;;;;;19.55;5.13;;;;;;;43.55;12.25;93166.25;5088186;28;20024;-56
2021/08/02 09:27:42;;;;;;;19.10;5.28;;;;;;;43.39;12.41;93166.81;5088428;28;20086;-55
2021/08/02 09:30:14;;;;;;;33.67;5.60;;;;;;;44.01;12.70;93167.47;5087873;28;20077;-56
2021/08/02 09:32:56;;;;;;;13.25;4.32;;;;;;;44.52;12.10;93151.03;5088454;28;20024;-56
2021/08/02 09:35:32;;;;;;;15.50;4.30;;;;;;;44.04;11.60;93141.94;5088429;28;20174;-56
2021/08/02 09:38:02;;;;;;;16.08;4.47;;;;;;;44.30;12.05;93153.31;5096173;28;20027;-55
2021/08/02 09:40:35;;;;;;;16.42;4.60;;;;;;;44.81;11.28;93154.28;5096196;28;20020;-56
2021/08/02 09:43:00;;;;;;;17.13;5.05;;;;;;;45.38;11.30;93153.34;5101500;28;20047;-56
2021/08/02 09:45:27;;;;;;;13.38;4.00;;;;;;;45.96;11.33;93155.91;5097804;28;20428;-56
2021/08/02 09:47:52;;;;;;;17.25;5.03;;;;;;;46.09;10.43;93153.88;5097201;28;20023;-57
2021/08/02 09:50:31;;;;;;;15.38;5.00;;;;;;;45.39;10.39;93146.00;5095258;28;20028;-57
2021/08/02 09:52:58;;;;;;;16.42;5.03;;;;;;;46.13;10.33;93153.69;5096104;28;20463;-57
2021/08/02 09:55:25;;;;;;;10.63;4.05;;;;;;;46.06;10.86;93166.44;5093479;28;20062;-57
2021/08/02 09:57:55;;;;;;;19.77;4.33;;;;;;;45.39;10.64;93157.69;5108273;28;20023;-56
2021/08/02 10:00:21;;;;;;;25.63;5.30;;;;;;;45.95;9.87;93157.44;5108420;28;20035;-56
2021/08/02 10:02:48;;;;;;;18.98;5.15;;;;;;;46.30;10.18;93151.47;5108419;28;20051;-57
2021/08/02 10:05:18;;;;;;;21.25;4.72;;;;;;;45.37;8.64;93151.94;5107893;28;20023;-56
2021/08/02 10:07:45;;;;;;;16.33;4.55;;;;;;;43.64;9.77;93141.22;5088342;28;20044;-56
2021/08/02 10:10:12;;;;;;;17.20;4.63;;;;;;;43.01;10.54;93130.31;5086336;28;20032;-54
2021/08/02 10:12:45;;;;;;;16.45;4.38;;;;;;;42.23;11.12;93142.94;5087819;28;20027;-57
2021/08/02 10:15:16;;;;;;;21.55;4.55;;;;;;;42.49;12.27;93150.16;5087668;28;20054;-57
2021/08/02 10:17:47;;;;;;;15.10;4.63;;;;;;;42.86;11.01;93150.44;5087707;28;20016;-57
2021/08/02 10:20:33;;;;;;;15.93;5.03;;;;;;;42.21;12.18;93160.44;5087934;28;20036;-56
2021/08/02 10:23:00;;;;;;;17.98;4.55;;;;;;;42.71;11.29;93147.22;5087561;28;20031;-56
2021/08/02 10:25:38;;;;;;;14.50;4.57;;;;;;;43.55;11.07;93140.78;5087574;28;20031;-56
2021/08/02 10:28:15;;;;;;;21.30;4.85;;;;;;;43.64;11.11;93130.28;5087538;28;20046;-57
2021/08/02 10:30:43;;;;;;;18.73;4.80;;;;;;;44.18;10.38;93142.13;5087647;28;20402;-57
2021/08/02 10:33:08;;;;;;;;;;;;;;;45.15;10.55;93152.84;5087107;28;20913;-57
2021/08/02 10:35:43;;;;;;;15.50;4.85;;;;;;;45.76;9.70;93154.63;5087739;28;19908;-57
2021/08/02 10:38:14;;;;;;;15.68;4.32;;;;;;;46.13;8.63;93147.16;5087414;28;20024;-57
2021/08/02 10:40:48;;;;;;;17.85;4.70;;;;;;;46.47;9.37;93145.56;5087840;28;20040;-57
2021/08/02 10:43:33;;;;;;;18.38;5.53;;;;;;;46.36;9.38;93147.56;5087392;28;20024;-57
2021/08/02 10:46:00;;;;;;;19.45;5.05;;;;;;;46.83;8.85;93143.16;5091065;28;20020;-57
2021/08/02 10:48:30;;;;;;;16.73;4.40;;;;;;;47.08;8.26;93132.41;5091498;28;20039;-57
2021/08/02 10:51:07;;;;;;;16.25;4.55;;;;;;;46.87;8.88;93140.72;5091420;28;20031;-58
2021/08/02 10:53:33;;;;;;;15.60;4.05;;;;;;;46.29;9.17;93123.03;5106757;28;20035;-57
2021/08/02 10:55:59;;;;;;;18.58;4.35;;;;;;;46.13;8.58;93120.88;5090119;28;20027;-57
2021/08/02 10:58:39;;;;;;;12.70;4.28;;;;;;;44.84;9.48;93106.78;5091180;28;20024;-57
2021/08/02 11:01:15;;;;;;;20.70;4.95;;;;;;;44.50;10.41;93124.91;5091152;28;20458;-57
2021/08/02 11:03:42;;;;;;;17.13;4.28;;;;;;;44.83;9.52;93113.41;5099611;28;20063;-57
2021/08/02 11:06:17;;;;;;;22.63;4.30;;;;;;;45.74;9.87;93119.66;5102422;28;20026;-57
2021/08/02 11:08:56;;;;;;;26.65;5.35;;;;;;;45.71;8.78;93126.41;5090604;28;20492;-57
2021/08/02 11:11:25;;;;;;;18.38;4.15;;;;;;;46.00;9.18;93137.53;5088678;28;20040;-57
2021/08/02 11:13:52;;;;;;;22.20;4.75;;;;;;;45.40;9.51;93117.56;5096299;28;20555;-57
2021/08/02 11:16:18;;;;;;;14.82;4.43;;;;;;;45.45;8.96;93118.78;5090725;28;20059;-57
2021/08/02 11:18:45;;;;;;;27.92;4.15;;;;;;;45.58;9.56;93110.94;5090412;28;20020;-57
2021/08/02 11:21:25;;;;;;;20.63;4.65;;;;;;;45.44;9.25;93109.31;5090565;28;20042;-57
2021/08/02 11:23:51;;;;;;;22.30;4.50;;;;;;;44.89;9.27;93104.41;5091541;28;20023;-57
2021/08/02 11:26:17;;;;;;;15.70;4.75;;;;;;;44.75;9.91;93110.81;5105903;28;20039;-56
2021/08/02 11:28:44;;;;;;;18.63;4.70;;;;;;;43.87;9.91;93109.84;5111034;28;20031;-57
2021/08/02 11:31:11;;;;;;;17.85;4.80;;;;;;;43.42;9.80;93107.13;5110798;28;20104;-57
2021/08/02 11:33:38;;;;;;;18.80;4.53;;;;;;;43.41;10.34;93109.31;5111103;28;20153;-56
2021/08/02 11:36:04;;;;;;;16.53;4.00;;;;;;;42.39;10.33;93113.41;5111051;28;20403;-56